createdAt,value
2023-03-28T00:16:47.036Z,16.6
2023-03-28T00:46:47.684Z,16.5
2023-03-28T01:16:48.380Z,16.5
2023-03-28T01:46:48.904Z,16.5
2023-03-28T02:16:49.415Z,16.4
2023-03-28T02:46:49.883Z,16.4
2023-03-28T03:17:00.655Z,16.4
2023-03-28T03:47:01.093Z,16.4
2023-03-28T04:17:01.869Z,16.3
2023-03-28T04:47:02.332Z,16.3
2023-03-28T05:17:12.762Z,16.3
2023-03-28T05:47:13.181Z,16.2
2023-03-28T06:17:14.251Z,16.2
2023-03-28T06:47:14.930Z,16.2
2023-03-28T07:17:15.872Z,15.9
2023-03-28T07:47:16.287Z,16.2
2023-03-28T08:17:16.760Z,16.1
2023-03-28T08:47:17.285Z,16.1
2023-03-28T09:17:19.526Z,16
2023-03-28T09:47:20.282Z,16
2023-03-28T10:17:20.760Z,16.1
2023-03-28T10:47:31.733Z,16.2
2023-03-28T11:17:32.446Z,16.2
2023-03-28T11:47:43.055Z,16.2
2023-03-28T12:17:43.734Z,16.2
2023-03-28T12:47:44.254Z,16.2
2023-03-28T13:17:45.285Z,16.3
2023-03-28T13:47:45.799Z,16.3
2023-03-28T14:17:46.857Z,16.4
2023-03-28T14:47:47.470Z,16.7
2023-03-28T15:17:48.192Z,16.6
2023-03-28T15:47:49.304Z,16.7
2023-03-28T16:17:49.953Z,16.7
2023-03-28T16:47:50.491Z,16.7
2023-03-28T17:18:01.076Z,16.9
2023-03-28T17:48:01.785Z,16.7
2023-03-28T18:18:12.645Z,16.7
2023-03-28T18:48:13.468Z,16.6
2023-03-28T19:18:14.463Z,16.6
2023-03-28T19:48:18.029Z,16.5
2023-03-28T20:18:18.790Z,16.5
2023-03-28T20:48:19.211Z,16.5
2023-03-28T21:18:19.650Z,16.4
2023-03-28T21:48:20.463Z,16.4
2023-03-28T22:18:21.100Z,16.4
2023-03-28T22:48:21.518Z,16.4
2023-03-28T23:18:21.915Z,16.4
2023-03-28T23:48:22.358Z,16.3
